createdAt,value
2023-03-17T00:01:16.275Z,29.23
2023-03-17T00:03:43.303Z,29.24
2023-03-17T00:06:27.840Z,29.09
2023-03-17T00:08:54.457Z,29.30
2023-03-17T00:11:21.202Z,29.37
2023-03-17T00:13:48.872Z,29.42
2023-03-17T00:16:25.598Z,29.23
2023-03-17T00:18:52.298Z,29.32
2023-03-17T00:21:26.118Z,29.40
2023-03-17T00:23:52.799Z,29.39
2023-03-17T00:26:19.721Z,29.49
2023-03-17T00:28:48.482Z,29.32
2023-03-17T00:31:16.706Z,29.43
2023-03-17T00:33:46.512Z,29.49
2023-03-17T00:36:22.754Z,29.47
2023-03-17T00:38:49.608Z,29.43
2023-03-17T00:41:17.287Z,29.44
2023-03-17T00:43:43.946Z,29.19
2023-03-17T00:46:38.248Z,29.37
2023-03-17T00:49:13.268Z,29.37
2023-03-17T00:51:40.204Z,29.55
2023-03-17T00:54:07.064Z,29.42
2023-03-17T00:56:33.641Z,29.55
2023-03-17T00:59:02.149Z,29.27
2023-03-17T01:01:28.753Z,29.47
2023-03-17T01:03:55.294Z,29.43
2023-03-17T01:06:21.854Z,29.30
2023-03-17T01:08:48.480Z,29.67
2023-03-17T01:11:18.537Z,29.47
2023-03-17T01:13:46.969Z,29.56
2023-03-17T01:16:13.961Z,29.26
2023-03-17T01:18:40.652Z,29.45
2023-03-17T01:21:07.835Z,29.62
2023-03-17T01:23:34.422Z,29.65
2023-03-17T01:26:00.994Z,29.53
2023-03-17T01:28:30.763Z,29.59
2023-03-17T01:30:57.642Z,29.42
2023-03-17T01:33:24.230Z,29.54
2023-03-17T01:35:50.939Z,29.60
2023-03-17T01:38:17.598Z,29.43
2023-03-17T01:40:49.614Z,29.62
2023-03-17T01:43:20.678Z,29.62
2023-03-17T01:46:27.595Z,29.48
2023-03-17T01:49:16.038Z,29.75
2023-03-17T01:52:00.882Z,29.55
2023-03-17T01:55:02.968Z,29.43
2023-03-17T01:57:44.893Z,29.55
2023-03-17T02:00:16.135Z,29.44
2023-03-17T02:02:44.923Z,29.65
2023-03-17T02:05:13.582Z,29.68
2023-03-17T02:07:40.529Z,29.60
2023-03-17T02:10:08.731Z,29.57
2023-03-17T02:12:37.513Z,29.61
2023-03-17T02:15:05.305Z,29.84
2023-03-17T02:17:32.077Z,29.81
2023-03-17T02:20:16.190Z,29.62
2023-03-17T02:22:52.791Z,29.77
2023-03-17T02:25:20.447Z,29.76
2023-03-17T02:27:49.336Z,29.78
2023-03-17T02:30:17.264Z,29.80
2023-03-17T02:32:44.039Z,29.91
2023-03-17T02:35:10.701Z,29.83
2023-03-17T02:37:37.740Z,29.77
2023-03-17T02:40:05.610Z,29.89
2023-03-17T02:42:33.103Z,29.87
2023-03-17T02:45:00.102Z,29.74
2023-03-17T02:47:27.608Z,29.48
2023-03-17T02:49:54.184Z,29.81
2023-03-17T02:52:20.821Z,30.03
2023-03-17T02:54:47.358Z,29.98
2023-03-17T02:57:13.890Z,29.77
2023-03-17T02:59:40.448Z,29.79
2023-03-17T03:02:06.984Z,29.95
2023-03-17T03:04:33.622Z,30.08
2023-03-17T03:07:00.384Z,29.83
2023-03-17T03:09:27.266Z,29.90
2023-03-17T03:11:53.911Z,29.81
2023-03-17T03:14:20.802Z,30.10
2023-03-17T03:16:47.490Z,29.88
2023-03-17T03:19:17.433Z,29.81
2023-03-17T03:21:44.168Z,29.88
2023-03-17T03:24:11.036Z,29.96
2023-03-17T03:26:38.270Z,29.81
2023-03-17T03:29:05.277Z,29.84
2023-03-17T03:31:31.919Z,29.88
2023-03-17T03:33:58.539Z,29.81
2023-03-17T03:36:26.704Z,29.83
2023-03-17T03:38:53.262Z,30.07
2023-03-17T03:41:19.808Z,29.81
2023-03-17T03:43:46.357Z,29.90
2023-03-17T03:46:12.941Z,30.16
2023-03-17T03:48:41.469Z,29.94
2023-03-17T03:51:11.132Z,30.17
2023-03-17T03:53:37.696Z,29.88
2023-03-17T03:56:04.458Z,29.73
2023-03-17T03:58:30.982Z,29.92
2023-03-17T04:00:57.520Z,29.93
2023-03-17T04:03:24.048Z,30.08
2023-03-17T04:05:50.566Z,29.79
2023-03-17T04:08:17.384Z,29.96
2023-03-17T04:10:44.500Z,30.01
2023-03-17T04:13:14.007Z,29.88
2023-03-17T04:15:40.801Z,30.05
2023-03-17T04:18:07.360Z,30.26
2023-03-17T04:20:33.976Z,29.82
2023-03-17T04:23:01.026Z,29.80
2023-03-17T04:25:27.602Z,29.87
2023-03-17T04:27:54.193Z,29.91
2023-03-17T04:30:20.715Z,29.93
2023-03-17T04:32:47.574Z,29.93
2023-03-17T04:35:15.727Z,29.97
2023-03-17T04:37:45.035Z,29.93
2023-03-17T04:40:12.548Z,29.80
2023-03-17T04:42:39.162Z,30.04
2023-03-17T04:45:06.527Z,29.93
2023-03-17T04:47:33.414Z,29.95
2023-03-17T04:49:59.976Z,30.18
2023-03-17T04:52:29.003Z,29.74
2023-03-17T04:54:55.687Z,29.96
2023-03-17T04:57:22.680Z,29.91
2023-03-17T04:59:49.262Z,30.10
2023-03-17T05:02:15.920Z,29.94
2023-03-17T05:04:43.139Z,29.93
2023-03-17T05:07:09.711Z,30.05
2023-03-17T05:09:36.290Z,29.92
2023-03-17T05:12:02.802Z,30.14
2023-03-17T05:14:29.395Z,29.79
2023-03-17T05:16:56.024Z,30.05
2023-03-17T05:19:25.692Z,30.26
2023-03-17T05:21:52.345Z,29.99
2023-03-17T05:24:18.964Z,30.04
2023-03-17T05:26:45.586Z,30.05
2023-03-17T05:29:12.214Z,30.06
2023-03-17T05:31:38.962Z,30.20
2023-03-17T05:34:05.602Z,30.25
2023-03-17T05:36:33.458Z,30.39
2023-03-17T05:39:00.051Z,29.82
2023-03-17T05:41:26.598Z,29.99
2023-03-17T05:43:53.126Z,30.13
2023-03-17T05:46:20.556Z,30.26
2023-03-17T05:48:47.271Z,30.21
2023-03-17T05:51:13.816Z,30.67
2023-03-17T05:53:41.018Z,30.48
2023-03-17T05:56:07.901Z,30.43
2023-03-17T05:58:37.364Z,30.18
2023-03-17T06:01:03.919Z,30.45
2023-03-17T06:03:30.457Z,30.01
2023-03-17T06:05:57.365Z,30.10
2023-03-17T06:08:23.949Z,30.00
2023-03-17T06:10:50.601Z,30.01
2023-03-17T06:13:17.121Z,30.22
2023-03-17T06:15:43.884Z,28.80
2023-03-17T06:18:10.623Z,27.42
2023-03-17T06:20:37.217Z,26.65
2023-03-17T06:23:05.905Z,26.43
2023-03-17T06:25:35.872Z,26.51
2023-03-17T06:28:03.834Z,27.06
2023-03-17T06:30:32.833Z,27.22
2023-03-17T06:33:00.146Z,27.37
2023-03-17T06:35:27.569Z,27.67
2023-03-17T06:37:54.666Z,27.75
2023-03-17T06:40:21.207Z,28.05
2023-03-17T06:42:48.118Z,27.99
2023-03-17T06:45:14.877Z,28.08
2023-03-17T06:47:41.449Z,28.20
2023-03-17T06:50:09.714Z,28.22
2023-03-17T06:52:36.800Z,28.35
2023-03-17T06:55:04.232Z,28.50
2023-03-17T06:57:30.961Z,28.50
2023-03-17T06:59:57.524Z,28.51
2023-03-17T07:02:27.321Z,28.47
2023-03-17T07:04:54.068Z,28.51
2023-03-17T07:07:21.085Z,28.55
2023-03-17T07:09:47.932Z,28.71
2023-03-17T07:12:14.664Z,28.80
2023-03-17T07:14:41.634Z,28.79
2023-03-17T07:17:10.707Z,27.15
2023-03-17T07:19:37.246Z,24.73
2023-03-17T07:22:03.834Z,24.19
2023-03-17T07:24:31.323Z,24.73
2023-03-17T07:26:57.919Z,25.60
2023-03-17T07:29:24.479Z,26.21
2023-03-17T07:31:51.176Z,26.20
2023-03-17T07:34:17.883Z,26.17
2023-03-17T07:36:44.545Z,26.26
2023-03-17T07:39:12.127Z,26.65
2023-03-17T07:41:38.892Z,26.58
2023-03-17T07:44:09.749Z,26.64
2023-03-17T07:46:36.828Z,26.76
2023-03-17T07:49:03.412Z,26.72
2023-03-17T07:51:30.138Z,26.77
2023-03-17T07:54:03.333Z,26.89
2023-03-17T07:56:31.041Z,27.04
2023-03-17T07:58:58.977Z,27.02
2023-03-17T08:01:26.418Z,27.08
2023-03-17T08:03:53.175Z,27.17
2023-03-17T08:06:19.930Z,27.21
2023-03-17T08:08:46.598Z,27.01
2023-03-17T08:11:13.503Z,27.27
2023-03-17T08:13:40.620Z,27.30
2023-03-17T08:16:08.093Z,27.28
2023-03-17T08:18:34.979Z,27.40
2023-03-17T08:21:02.157Z,27.36
2023-03-17T08:23:28.856Z,27.36
2023-03-17T08:25:59.328Z,27.32
2023-03-17T08:28:25.975Z,27.18
2023-03-17T08:30:52.683Z,27.32
2023-03-17T08:33:19.431Z,27.23
2023-03-17T08:35:46.981Z,27.16
2023-03-17T08:38:13.713Z,27.38
2023-03-17T08:40:41.135Z,27.44
2023-03-17T08:43:07.867Z,27.59
2023-03-17T08:45:34.543Z,27.54
2023-03-17T08:48:01.235Z,27.57
2023-03-17T08:50:27.925Z,27.49
2023-03-17T08:52:55.066Z,27.54
2023-03-17T08:55:21.845Z,27.63
2023-03-17T08:57:48.724Z,27.46
2023-03-17T09:00:20.214Z,27.58
2023-03-17T09:02:47.062Z,27.71
2023-03-17T09:05:14.828Z,27.80
2023-03-17T09:07:41.824Z,27.78
2023-03-17T09:10:08.999Z,27.69
2023-03-17T09:12:35.650Z,27.88
2023-03-17T09:15:02.309Z,27.92
2023-03-17T09:17:29.096Z,27.91
2023-03-17T09:19:55.867Z,27.96
2023-03-17T09:22:23.011Z,28.20
2023-03-17T09:24:50.047Z,27.97
2023-03-17T09:27:16.742Z,28.03
2023-03-17T09:29:43.355Z,27.97
2023-03-17T09:32:10.369Z,28.04
2023-03-17T09:34:37.703Z,27.95
2023-03-17T09:37:04.440Z,28.02
2023-03-17T09:39:31.302Z,28.27
2023-03-17T09:42:21.373Z,28.00
2023-03-17T09:45:13.380Z,27.92
2023-03-17T09:47:42.650Z,28.14
2023-03-17T09:50:18.398Z,27.96
2023-03-17T09:52:45.188Z,28.13
2023-03-17T09:55:18.236Z,28.13
2023-03-17T09:57:44.960Z,28.21
2023-03-17T10:00:15.978Z,28.24
2023-03-17T10:02:43.510Z,28.06
2023-03-17T10:05:21.593Z,27.93
2023-03-17T10:08:06.333Z,27.96
2023-03-17T10:11:06.312Z,28.06
2023-03-17T10:14:17.991Z,27.94
2023-03-17T10:16:50.323Z,28.11
2023-03-17T10:19:31.710Z,27.95
2023-03-17T10:22:26.409Z,27.89
2023-03-17T10:24:54.745Z,27.88
2023-03-17T10:27:21.660Z,27.87
2023-03-17T10:29:48.817Z,27.66
2023-03-17T10:32:16.206Z,27.96
2023-03-17T10:34:43.092Z,27.83
2023-03-17T10:37:14.185Z,27.65
2023-03-17T10:39:51.770Z,27.57
2023-03-17T10:42:22.429Z,28.15
2023-03-17T10:44:59.084Z,27.85
2023-03-17T10:47:30.213Z,27.77
2023-03-17T10:49:57.451Z,27.82
2023-03-17T10:52:30.266Z,27.88
2023-03-17T10:55:01.626Z,27.66
2023-03-17T10:57:28.641Z,27.56
2023-03-17T10:59:56.552Z,27.92
2023-03-17T11:02:31.572Z,27.67
2023-03-17T11:05:05.801Z,27.90
2023-03-17T11:07:38.672Z,28.05
2023-03-17T11:10:18.833Z,27.75
2023-03-17T11:12:48.491Z,27.47
2023-03-17T11:15:20.203Z,28.03
2023-03-17T11:17:58.114Z,27.59
2023-03-17T11:20:27.744Z,27.76
2023-03-17T11:23:22.257Z,27.79
2023-03-17T11:25:52.358Z,27.89
2023-03-17T11:28:24.970Z,27.92
2023-03-17T11:30:57.875Z,27.97
2023-03-17T11:33:47.117Z,27.90
2023-03-17T11:36:53.584Z,27.70
2023-03-17T11:39:46.138Z,27.87
2023-03-17T11:42:41.857Z,27.76
2023-03-17T11:45:51.879Z,27.20
2023-03-17T11:48:24.326Z,26.95
2023-03-17T11:51:08.490Z,26.93
2023-03-17T11:54:13.954Z,26.73
2023-03-17T11:56:41.956Z,27.27
2023-03-17T11:59:16.852Z,28.18
2023-03-17T12:02:17.394Z,27.81
2023-03-17T12:04:48.710Z,27.97
2023-03-17T12:07:32.375Z,28.38
2023-03-17T12:10:23.802Z,28.89
2023-03-17T12:12:53.396Z,29.10
2023-03-17T12:15:33.185Z,28.64
2023-03-17T12:18:03.075Z,28.38
2023-03-17T12:20:34.042Z,28.64
2023-03-17T12:23:33.030Z,28.38
2023-03-17T12:26:05.143Z,28.40
2023-03-17T12:28:39.590Z,28.47
2023-03-17T12:31:07.696Z,28.26
2023-03-17T12:33:40.045Z,28.54
2023-03-17T12:36:07.063Z,28.57
2023-03-17T12:38:39.755Z,28.56
2023-03-17T12:41:28.635Z,28.32
2023-03-17T12:44:03.493Z,28.73
2023-03-17T12:46:42.921Z,28.30
2023-03-17T12:49:21.870Z,28.57
2023-03-17T12:52:04.117Z,28.31
2023-03-17T12:54:31.626Z,28.56
2023-03-17T12:57:13.448Z,28.72
2023-03-17T12:59:42.708Z,28.52
2023-03-17T13:02:29.456Z,28.44
2023-03-17T13:05:04.556Z,28.66
2023-03-17T13:07:53.877Z,28.34
2023-03-17T13:10:44.091Z,28.44
2023-03-17T13:13:13.672Z,28.08
2023-03-17T13:15:48.574Z,28.53
2023-03-17T13:18:18.425Z,28.20
2023-03-17T13:21:08.087Z,28.62
2023-03-17T13:23:41.712Z,28.27
2023-03-17T13:26:10.964Z,28.43
2023-03-17T13:28:37.420Z,28.37
2023-03-17T13:31:32.224Z,28.45
2023-03-17T13:34:13.342Z,28.80
2023-03-17T13:36:49.730Z,28.73
2023-03-17T13:39:41.076Z,28.86
2023-03-17T13:42:26.326Z,28.56
2023-03-17T13:45:11.800Z,28.55
2023-03-17T13:47:42.178Z,29.04
2023-03-17T13:50:22.756Z,28.42
2023-03-17T13:52:53.422Z,28.72
2023-03-17T13:55:20.419Z,28.84
2023-03-17T13:57:57.248Z,28.80
2023-03-17T14:00:28.091Z,28.65
2023-03-17T14:03:02.017Z,28.91
2023-03-17T14:05:30.683Z,29.14
2023-03-17T14:08:02.716Z,28.97
2023-03-17T14:10:31.353Z,29.09
2023-03-17T14:13:20.489Z,29.09
2023-03-17T14:16:00.823Z,28.93
2023-03-17T14:18:33.165Z,28.94
2023-03-17T14:21:01.990Z,28.94
2023-03-17T14:23:29.898Z,29.11
2023-03-17T14:25:57.599Z,28.87
2023-03-17T14:28:34.031Z,29.01
2023-03-17T14:31:05.560Z,28.81
2023-03-17T14:33:38.633Z,29.17
2023-03-17T14:36:08.021Z,29.02
2023-03-17T14:38:36.252Z,29.11
2023-03-17T14:41:14.968Z,28.93
2023-03-17T14:43:42.581Z,29.22
2023-03-17T14:46:18.465Z,28.92
2023-03-17T14:48:47.608Z,28.83
2023-03-17T14:51:24.765Z,28.78
2023-03-17T14:53:52.265Z,29.23
2023-03-17T14:56:27.378Z,29.25
2023-03-17T14:58:56.574Z,28.93
2023-03-17T15:01:37.733Z,29.14
2023-03-17T15:04:18.522Z,29.31
2023-03-17T15:06:50.401Z,29.50
2023-03-17T15:09:19.358Z,29.16
2023-03-17T15:11:46.264Z,29.14
2023-03-17T15:14:18.708Z,29.11
2023-03-17T15:16:51.331Z,29.44
2023-03-17T15:19:23.650Z,29.39
2023-03-17T15:21:50.576Z,29.37
2023-03-17T15:24:23.136Z,29.04
2023-03-17T15:26:50.096Z,29.45
2023-03-17T15:29:16.883Z,29.17
2023-03-17T15:31:43.456Z,29.18
2023-03-17T15:34:13.216Z,29.43
2023-03-17T15:36:40.036Z,29.04
2023-03-17T15:39:06.605Z,29.51
2023-03-17T15:41:33.229Z,29.24
2023-03-17T15:43:59.853Z,29.27
2023-03-17T15:46:27.748Z,29.34
2023-03-17T15:48:54.433Z,29.73
2023-03-17T15:51:21.093Z,29.50
2023-03-17T15:53:47.677Z,29.30
2023-03-17T15:56:19.212Z,29.58
2023-03-17T15:58:51.491Z,29.70
2023-03-17T16:01:18.703Z,29.24
2023-03-17T16:03:47.122Z,29.51
2023-03-17T16:06:16.320Z,29.42
2023-03-17T16:08:42.994Z,29.27
2023-03-17T16:11:20.491Z,29.60
2023-03-17T16:13:47.443Z,29.93
2023-03-17T16:16:21.524Z,29.79
2023-03-17T16:18:48.759Z,29.48
2023-03-17T16:21:16.591Z,29.38
2023-03-17T16:23:43.231Z,29.31
2023-03-17T16:26:15.928Z,28.87
2023-03-17T16:28:44.902Z,28.80
2023-03-17T16:31:25.593Z,27.95
2023-03-17T16:33:54.115Z,28.18
2023-03-17T16:36:21.245Z,28.12
2023-03-17T16:38:47.965Z,28.16
2023-03-17T16:41:22.906Z,27.86
2023-03-17T16:43:55.340Z,28.14
2023-03-17T16:46:22.185Z,28.16
2023-03-17T16:48:49.764Z,28.03
2023-03-17T16:51:16.880Z,28.32
2023-03-17T16:53:43.671Z,28.07
2023-03-17T16:56:14.663Z,28.06
2023-03-17T16:58:41.744Z,28.06
2023-03-17T17:01:16.748Z,28.31
2023-03-17T17:03:43.636Z,28.20
2023-03-17T17:06:11.065Z,28.19
2023-03-17T17:08:37.718Z,28.24
2023-03-17T17:11:04.420Z,27.97
2023-03-17T17:13:31.153Z,27.99
2023-03-17T17:15:57.779Z,27.98
2023-03-17T17:18:27.010Z,28.25
2023-03-17T17:20:53.801Z,28.01
2023-03-17T17:23:21.839Z,28.15
2023-03-17T17:25:48.660Z,28.05
2023-03-17T17:28:17.212Z,28.82
2023-03-17T17:30:46.215Z,31.09
2023-03-17T17:33:12.878Z,30.59
2023-03-17T17:35:39.517Z,29.94
2023-03-17T17:38:07.905Z,29.97
2023-03-17T17:40:34.854Z,29.88
2023-03-17T17:43:01.783Z,29.64
2023-03-17T17:45:28.511Z,29.64
2023-03-17T17:47:55.144Z,29.67
2023-03-17T17:50:25.602Z,29.57
2023-03-17T17:52:52.457Z,29.54
2023-03-17T17:55:19.386Z,31.33
2023-03-17T17:57:46.019Z,32.80
2023-03-17T18:00:17.080Z,31.81
2023-03-17T18:02:43.895Z,32.94
2023-03-17T18:05:11.018Z,34.75
2023-03-17T18:07:37.800Z,31.15
2023-03-17T18:10:05.044Z,33.28
2023-03-17T18:12:31.671Z,33.00
2023-03-17T18:14:58.387Z,31.94
2023-03-17T18:17:25.138Z,31.97
2023-03-17T18:19:55.088Z,31.22
2023-03-17T18:22:21.694Z,31.32
2023-03-17T18:24:49.154Z,30.94
2023-03-17T18:27:15.788Z,31.08
2023-03-17T18:29:43.450Z,30.91
2023-03-17T18:32:12.877Z,31.17
2023-03-17T18:34:46.244Z,31.09
2023-03-17T18:37:13.913Z,30.95
2023-03-17T18:39:41.132Z,30.67
2023-03-17T18:42:07.823Z,30.73
2023-03-17T18:44:34.428Z,30.51
2023-03-17T18:47:01.910Z,30.48
2023-03-17T18:49:28.706Z,30.76
2023-03-17T18:51:56.260Z,30.81
2023-03-17T18:54:23.566Z,30.67
2023-03-17T18:56:50.553Z,30.42
2023-03-17T18:59:17.079Z,30.64
2023-03-17T19:01:43.762Z,30.36
2023-03-17T19:04:10.565Z,30.76
2023-03-17T19:06:39.533Z,30.18
2023-03-17T19:09:06.965Z,30.29
2023-03-17T19:11:33.675Z,30.37
2023-03-17T19:14:00.413Z,30.50
2023-03-17T19:16:29.409Z,30.59
2023-03-17T19:18:56.964Z,30.22
2023-03-17T19:21:23.924Z,30.41
2023-03-17T19:23:51.053Z,30.36
2023-03-17T19:26:18.975Z,30.18
2023-03-17T19:28:45.797Z,30.47
2023-03-17T19:31:12.685Z,30.27
2023-03-17T19:33:39.626Z,30.27
2023-03-17T19:36:12.046Z,30.12
2023-03-17T19:38:39.313Z,30.14
2023-03-17T19:41:07.428Z,30.42
2023-03-17T19:43:40.700Z,30.24
2023-03-17T19:46:10.858Z,30.32
2023-03-17T19:48:37.704Z,30.13
2023-03-17T19:51:04.629Z,30.19
2023-03-17T19:53:31.397Z,30.12
2023-03-17T19:55:58.039Z,30.01
2023-03-17T19:58:24.721Z,30.08
2023-03-17T20:00:51.713Z,30.30
2023-03-17T20:03:18.857Z,30.22
2023-03-17T20:05:46.383Z,30.34
2023-03-17T20:08:14.650Z,30.30
2023-03-17T20:10:41.298Z,30.02
2023-03-17T20:13:08.003Z,30.17
2023-03-17T20:15:34.934Z,30.29
2023-03-17T20:18:01.810Z,30.39
2023-03-17T20:20:28.473Z,30.23
2023-03-17T20:22:55.672Z,30.26
2023-03-17T20:25:22.527Z,29.97
2023-03-17T20:27:49.330Z,30.32
2023-03-17T20:30:16.208Z,30.06
2023-03-17T20:32:44.465Z,29.95
2023-03-17T20:35:11.505Z,30.05
2023-03-17T20:37:38.702Z,30.02
2023-03-17T20:40:08.441Z,29.98
2023-03-17T20:42:35.410Z,30.20
2023-03-17T20:45:03.598Z,30.07
2023-03-17T20:47:30.959Z,29.98
2023-03-17T20:49:58.928Z,29.95
2023-03-17T20:52:30.310Z,29.94
2023-03-17T20:54:59.513Z,30.01
2023-03-17T20:57:26.344Z,29.85
2023-03-17T20:59:53.056Z,30.01
2023-03-17T21:02:19.753Z,30.05
2023-03-17T21:04:49.249Z,30.26
2023-03-17T21:07:20.500Z,29.95
2023-03-17T21:09:47.572Z,30.29
2023-03-17T21:12:15.485Z,30.24
2023-03-17T21:14:42.537Z,29.89
2023-03-17T21:17:10.139Z,29.77
2023-03-17T21:19:37.153Z,29.80
2023-03-17T21:22:04.329Z,30.07
2023-03-17T21:24:33.603Z,29.99
2023-03-17T21:27:01.290Z,29.91
2023-03-17T21:29:28.191Z,30.30
2023-03-17T21:31:56.682Z,30.29
2023-03-17T21:34:24.410Z,30.28
2023-03-17T21:36:51.600Z,29.95
2023-03-17T21:39:19.029Z,30.25
2023-03-17T21:41:46.222Z,30.10
2023-03-17T21:44:15.769Z,30.29
2023-03-17T21:46:43.256Z,30.24
2023-03-17T21:49:10.042Z,29.80
2023-03-17T21:51:40.029Z,30.17
2023-03-17T21:54:07.118Z,30.22
2023-03-17T21:56:33.827Z,30.04
2023-03-17T21:59:00.773Z,30.24
2023-03-17T22:01:27.587Z,30.14
2023-03-17T22:03:54.248Z,30.22
2023-03-17T22:06:20.947Z,30.05
2023-03-17T22:08:48.061Z,29.96
2023-03-17T22:11:18.382Z,30.04
2023-03-17T22:13:45.087Z,29.84
2023-03-17T22:16:11.959Z,29.90
2023-03-17T22:18:38.589Z,30.07
2023-03-17T22:21:06.125Z,30.24
2023-03-17T22:23:39.559Z,30.30
2023-03-17T22:26:06.631Z,30.10
2023-03-17T22:28:33.258Z,30.17
2023-03-17T22:30:59.871Z,30.23
2023-03-17T22:33:26.499Z,30.14
2023-03-17T22:35:53.149Z,30.03
2023-03-17T22:38:24.858Z,30.13
2023-03-17T22:41:02.562Z,30.11
2023-03-17T22:43:29.541Z,30.18
2023-03-17T22:45:56.414Z,30.17
2023-03-17T22:48:23.092Z,30.12
2023-03-17T22:50:49.736Z,30.04
2023-03-17T22:53:16.565Z,30.15
2023-03-17T22:55:43.508Z,30.16
2023-03-17T22:58:10.508Z,30.22
2023-03-17T23:00:37.217Z,30.27
2023-03-17T23:03:04.341Z,30.31
2023-03-17T23:05:30.941Z,30.39
2023-03-17T23:07:57.610Z,30.28
2023-03-17T23:10:25.247Z,30.29
2023-03-17T23:12:52.038Z,30.29
2023-03-17T23:15:19.711Z,30.39
2023-03-17T23:17:47.055Z,30.30
2023-03-17T23:20:14.148Z,30.14
2023-03-17T23:22:40.719Z,30.37
2023-03-17T23:25:07.707Z,30.41
2023-03-17T23:27:34.442Z,30.31
2023-03-17T23:30:01.122Z,30.07
2023-03-17T23:32:27.743Z,30.54
2023-03-17T23:34:54.599Z,30.30
2023-03-17T23:37:22.946Z,30.45
2023-03-17T23:39:49.648Z,30.43
2023-03-17T23:42:17.299Z,30.29
2023-03-17T23:44:45.046Z,30.28
2023-03-17T23:47:11.874Z,30.36
2023-03-17T23:49:38.877Z,30.54
2023-03-17T23:52:05.583Z,30.37
2023-03-17T23:54:33.080Z,30.28
2023-03-17T23:57:00.223Z,30.40
2023-03-17T23:59:26.802Z,30.35
